createdAt,value
2024-04-10T00:00:32.586Z,9.548339844
2024-04-10T00:02:06.845Z,9.558410645
2024-04-10T00:03:11.615Z,9.588623047
2024-04-10T00:04:13.196Z,9.618835449
2024-04-10T00:05:16.348Z,9.588623047
2024-04-10T00:06:18.712Z,9.578552246
2024-04-10T00:07:20.872Z,9.49798584
2024-04-10T00:08:23.448Z,9.518127441
2024-04-10T00:09:24.771Z,9.49798584
2024-04-10T00:10:27.542Z,9.528198242
2024-04-10T00:11:31.130Z,9.518127441
2024-04-10T00:12:33.438Z,9.518127441
2024-04-10T00:14:06.664Z,9.417419434
2024-04-10T00:15:09.011Z,9.316711426
2024-04-10T00:16:13.108Z,9.226074219
2024-04-10T00:17:15.637Z,9.11529541
2024-04-10T00:18:18.187Z,9.125366211
2024-04-10T00:19:20.596Z,9.145507813
2024-04-10T00:20:22.912Z,9.195861816
2024-04-10T00:21:24.511Z,9.195861816
2024-04-10T00:22:26.815Z,9.216003418
2024-04-10T00:23:29.240Z,9.216003418
2024-04-10T00:24:31.488Z,9.155578613
2024-04-10T00:25:33.948Z,9.044799805
2024-04-10T00:27:07.794Z,9.044799805
2024-04-10T00:28:09.198Z,9.075012207
2024-04-10T00:29:11.390Z,9.075012207
2024-04-10T00:30:13.826Z,9.075012207
2024-04-10T00:31:16.186Z,9.11529541
2024-04-10T00:32:18.711Z,9.11529541
2024-04-10T00:33:21.755Z,9.145507813
2024-04-10T00:34:23.674Z,9.145507813
2024-04-10T00:35:25.279Z,9.155578613
2024-04-10T00:36:27.652Z,9.165649414
2024-04-10T00:37:29.929Z,9.23614502
2024-04-10T00:38:32.340Z,9.336853027
2024-04-10T00:40:05.514Z,9.306640625
2024-04-10T00:41:07.654Z,9.266357422
2024-04-10T00:42:09.815Z,9.266357422
2024-04-10T00:43:12.345Z,9.306640625
2024-04-10T00:44:14.894Z,9.296569824
2024-04-10T00:45:17.430Z,9.256286621
2024-04-10T00:46:20.211Z,9.266357422
2024-04-10T00:47:21.961Z,9.256286621
2024-04-10T00:48:23.398Z,9.306640625
2024-04-10T00:49:25.083Z,9.316711426
2024-04-10T00:50:27.683Z,9.316711426
2024-04-10T00:51:30.082Z,9.37713623
2024-04-10T00:52:32.580Z,9.447631836
2024-04-10T00:54:06.393Z,9.477844238
2024-04-10T00:55:08.384Z,9.49798584
2024-04-10T00:56:11.409Z,9.548339844
2024-04-10T00:57:14.155Z,9.558410645
2024-04-10T00:58:16.125Z,9.558410645
2024-04-10T00:59:19.013Z,9.548339844
2024-04-10T01:00:21.086Z,9.548339844
2024-04-10T01:01:24.220Z,9.578552246
2024-04-10T01:02:25.489Z,9.598693848
2024-04-10T01:03:27.400Z,9.588623047
2024-04-10T01:04:30.676Z,9.598693848
2024-04-10T01:05:33.579Z,9.709472656
2024-04-10T01:07:07.140Z,9.679260254
2024-04-10T01:08:09.231Z,9.669189453
2024-04-10T01:09:11.145Z,9.618835449
2024-04-10T01:10:14.206Z,9.618835449
2024-04-10T01:11:15.638Z,9.598693848
2024-04-10T01:12:18.094Z,9.588623047
2024-04-10T01:13:21.135Z,9.558410645
2024-04-10T01:14:23.239Z,9.528198242
2024-04-10T01:15:25.281Z,9.49798584
2024-04-10T01:16:27.350Z,9.49798584
2024-04-10T01:17:29.422Z,9.437561035
2024-04-10T01:18:31.525Z,9.417419434
2024-04-10T01:20:05.707Z,9.36706543
2024-04-10T01:21:08.217Z,9.407348633
2024-04-10T01:22:10.194Z,9.37713623
2024-04-10T01:23:12.188Z,9.417419434
2024-04-10T01:24:14.112Z,9.37713623
2024-04-10T01:25:16.661Z,9.36706543
2024-04-10T01:26:18.866Z,9.336853027
2024-04-10T01:27:20.666Z,9.37713623
2024-04-10T01:28:22.593Z,9.36706543
2024-04-10T01:29:24.850Z,9.397277832
2024-04-10T01:30:27.557Z,9.407348633
2024-04-10T01:31:31.286Z,9.447631836
2024-04-10T01:33:05.264Z,9.487915039
2024-04-10T01:34:07.380Z,9.487915039
2024-04-10T01:35:09.632Z,9.518127441
2024-04-10T01:36:11.674Z,9.548339844
2024-04-10T01:37:13.782Z,9.548339844
2024-04-10T01:38:15.865Z,9.528198242
2024-04-10T01:39:18.268Z,9.548339844
2024-04-10T01:40:20.681Z,9.558410645
2024-04-10T01:41:23.179Z,9.578552246
2024-04-10T01:42:25.615Z,9.578552246
2024-04-10T01:43:28.921Z,9.578552246
2024-04-10T01:44:30.940Z,9.578552246
2024-04-10T01:45:33.530Z,9.578552246
2024-04-10T01:47:07.768Z,9.578552246
2024-04-10T01:48:09.748Z,9.588623047
2024-04-10T01:49:11.362Z,9.588623047
2024-04-10T01:50:13.700Z,9.588623047
2024-04-10T01:51:16.148Z,9.598693848
2024-04-10T01:52:18.357Z,9.598693848
2024-04-10T01:53:20.909Z,9.598693848
2024-04-10T01:54:22.696Z,9.588623047
2024-04-10T01:55:24.785Z,9.558410645
2024-04-10T01:56:26.433Z,9.558410645
2024-04-10T01:57:28.412Z,9.578552246
2024-04-10T01:58:30.537Z,9.588623047
2024-04-10T01:59:33.390Z,9.618835449
2024-04-10T02:01:06.681Z,9.598693848
2024-04-10T02:02:08.777Z,9.598693848
2024-04-10T02:03:10.875Z,9.669189453
2024-04-10T02:04:13.198Z,9.618835449
2024-04-10T02:05:15.523Z,9.588623047
2024-04-10T02:06:17.701Z,9.578552246
2024-04-10T02:07:19.839Z,9.518127441
2024-04-10T02:08:22.415Z,9.477844238
2024-04-10T02:09:24.629Z,9.36706543
2024-04-10T02:10:27.008Z,9.23614502
2024-04-10T02:11:29.075Z,9.145507813
2024-04-10T02:12:30.885Z,9.044799805
2024-04-10T02:13:33.632Z,8.964233398
2024-04-10T02:15:07.698Z,8.974304199
2024-04-10T02:16:10.263Z,9.034729004
2024-04-10T02:17:13.560Z,9.075012207
2024-04-10T02:18:16.491Z,9.075012207
2024-04-10T02:19:18.807Z,9.004516602
2024-04-10T02:20:22.283Z,8.964233398
2024-04-10T02:21:24.641Z,8.944091797
2024-04-10T02:22:27.184Z,8.984375
2024-04-10T02:23:29.776Z,9.034729004
2024-04-10T02:24:32.365Z,9.155578613
2024-04-10T02:26:07.363Z,9.195861816
2024-04-10T02:27:08.788Z,9.256286621
2024-04-10T02:28:10.947Z,9.306640625
2024-04-10T02:29:13.836Z,9.336853027
2024-04-10T02:30:16.250Z,9.397277832
2024-04-10T02:31:18.548Z,9.417419434
2024-04-10T02:32:21.543Z,9.437561035
2024-04-10T02:33:24.382Z,9.447631836
2024-04-10T02:34:26.137Z,9.487915039
2024-04-10T02:35:28.924Z,9.518127441
2024-04-10T02:36:31.106Z,9.49798584
2024-04-10T02:38:05.475Z,9.487915039
2024-04-10T02:39:07.896Z,9.487915039
2024-04-10T02:40:10.630Z,9.49798584
2024-04-10T02:41:13.779Z,9.447631836
2024-04-10T02:42:16.577Z,9.447631836
2024-04-10T02:43:18.792Z,9.407348633
2024-04-10T02:44:20.340Z,9.296569824
2024-04-10T02:45:23.307Z,9.226074219
2024-04-10T02:46:25.757Z,9.125366211
2024-04-10T02:47:27.828Z,9.004516602
2024-04-10T02:48:29.886Z,8.944091797
2024-04-10T02:49:33.586Z,8.793029785
2024-04-10T02:51:07.329Z,8.793029785
2024-04-10T02:52:09.337Z,8.762817383
2024-04-10T02:53:12.353Z,8.682250977
2024-04-10T02:54:14.157Z,8.682250977
2024-04-10T02:55:16.199Z,8.641967773
2024-04-10T02:56:18.282Z,8.60168457
2024-04-10T02:57:20.557Z,8.611755371
2024-04-10T02:58:22.038Z,8.641967773
2024-04-10T02:59:24.787Z,8.712463379
2024-04-10T03:00:27.239Z,8.73260498
2024-04-10T03:01:29.757Z,8.782958984
2024-04-10T03:02:32.143Z,8.833312988
2024-04-10T03:04:07.078Z,8.863525391
2024-04-10T03:05:09.699Z,8.883666992
2024-04-10T03:06:11.708Z,8.913879395
2024-04-10T03:07:15.010Z,8.944091797
2024-04-10T03:08:17.225Z,8.964233398
2024-04-10T03:09:20.456Z,8.964233398
2024-04-10T03:10:22.656Z,8.964233398
2024-04-10T03:11:24.923Z,8.984375
2024-04-10T03:12:26.902Z,8.913879395
2024-04-10T03:13:29.914Z,8.803100586
2024-04-10T03:14:33.343Z,8.712463379
2024-04-10T03:16:06.826Z,8.672180176
2024-04-10T03:17:09.368Z,8.611755371
2024-04-10T03:18:12.874Z,8.571472168
2024-04-10T03:19:14.148Z,8.551330566
2024-04-10T03:20:17.176Z,8.611755371
2024-04-10T03:21:19.834Z,8.611755371
2024-04-10T03:22:21.673Z,8.672180176
2024-04-10T03:23:23.780Z,8.712463379
2024-04-10T03:24:26.232Z,8.782958984
2024-04-10T03:25:29.076Z,8.803100586
2024-04-10T03:26:31.296Z,8.893737793
2024-04-10T03:28:05.164Z,8.913879395
2024-04-10T03:29:07.671Z,8.913879395
2024-04-10T03:30:09.696Z,8.85345459
2024-04-10T03:31:11.739Z,8.762817383
2024-04-10T03:32:13.940Z,8.652038574
2024-04-10T03:33:15.830Z,8.581542969
2024-04-10T03:34:18.303Z,8.521118164
2024-04-10T03:35:19.582Z,8.521118164
2024-04-10T03:36:21.703Z,8.521118164
2024-04-10T03:37:23.711Z,8.490905762
2024-04-10T03:38:25.831Z,8.430480957
2024-04-10T03:39:28.074Z,8.390197754
2024-04-10T03:40:31.205Z,8.370056152
2024-04-10T03:41:34.272Z,8.359985352
2024-04-10T03:43:07.704Z,8.319702148
2024-04-10T03:44:09.703Z,8.269348145
2024-04-10T03:45:11.700Z,8.249206543
2024-04-10T03:46:13.766Z,8.239135742
2024-04-10T03:47:16.107Z,8.20892334
2024-04-10T03:48:18.378Z,8.249206543
2024-04-10T03:49:20.227Z,8.289489746
2024-04-10T03:50:22.300Z,8.249206543
2024-04-10T03:51:24.673Z,8.249206543
2024-04-10T03:52:27.201Z,8.249206543
2024-04-10T03:53:29.554Z,8.289489746
2024-04-10T03:54:31.325Z,8.319702148
2024-04-10T03:56:05.278Z,8.319702148
2024-04-10T03:57:07.203Z,8.33984375
2024-04-10T03:58:09.255Z,8.359985352
2024-04-10T03:59:11.210Z,8.359985352
2024-04-10T04:00:13.168Z,8.309631348
2024-04-10T04:01:15.259Z,8.279418945
2024-04-10T04:02:17.328Z,8.20892334
2024-04-10T04:03:19.339Z,8.128356934
2024-04-10T04:04:21.255Z,8.128356934
2024-04-10T04:05:23.204Z,8.098144531
2024-04-10T04:06:25.894Z,8.057861328
2024-04-10T04:07:27.834Z,8.067932129
2024-04-10T04:08:30.126Z,8.037719727
2024-04-10T04:09:32.653Z,8.138427734
2024-04-10T04:11:05.903Z,8.20892334
2024-04-10T04:12:07.908Z,8.198852539
2024-04-10T04:13:09.685Z,8.138427734
2024-04-10T04:14:11.756Z,8.08807373
2024-04-10T04:15:13.867Z,8.057861328
2024-04-10T04:16:15.373Z,8.037719727
2024-04-10T04:17:17.479Z,8.017578125
2024-04-10T04:18:19.486Z,7.997436523
2024-04-10T04:19:21.352Z,7.937011719
2024-04-10T04:20:23.480Z,7.937011719
2024-04-10T04:21:25.820Z,7.94708252
2024-04-10T04:22:27.919Z,7.987365723
2024-04-10T04:23:30.157Z,7.997436523
2024-04-10T04:24:32.783Z,7.987365723
2024-04-10T04:26:08.269Z,8.027648926
2024-04-10T04:27:10.679Z,7.987365723
2024-04-10T04:28:12.709Z,7.906799316
2024-04-10T04:29:14.867Z,7.816162109
2024-04-10T04:30:17.228Z,7.765808105
2024-04-10T04:31:19.281Z,7.765808105
2024-04-10T04:32:21.312Z,7.765808105
2024-04-10T04:33:23.404Z,7.836303711
2024-04-10T04:34:25.359Z,7.876586914
2024-04-10T04:35:26.819Z,7.836303711
2024-04-10T04:36:29.036Z,7.846374512
2024-04-10T04:37:30.857Z,7.876586914
2024-04-10T04:38:33.414Z,7.906799316
2024-04-10T04:40:07.900Z,7.916870117
2024-04-10T04:41:09.835Z,7.95715332
2024-04-10T04:42:11.922Z,7.95715332
2024-04-10T04:43:14.226Z,7.987365723
2024-04-10T04:44:16.248Z,7.906799316
2024-04-10T04:45:18.244Z,7.856445313
2024-04-10T04:46:20.236Z,7.846374512
2024-04-10T04:47:21.749Z,7.816162109
2024-04-10T04:48:24.172Z,7.856445313
2024-04-10T04:49:26.247Z,7.836303711
2024-04-10T04:50:28.516Z,7.785949707
2024-04-10T04:51:30.811Z,7.765808105
2024-04-10T04:53:04.786Z,7.765808105
2024-04-10T04:54:06.791Z,7.836303711
2024-04-10T04:55:08.790Z,7.886657715
2024-04-10T04:56:10.249Z,7.906799316
2024-04-10T04:57:12.742Z,7.95715332
2024-04-10T04:58:15.227Z,7.94708252
2024-04-10T04:59:17.207Z,8.027648926
2024-04-10T05:00:19.814Z,8.08807373
2024-04-10T05:01:22.342Z,8.128356934
2024-04-10T05:02:24.318Z,8.118286133
2024-04-10T05:03:26.140Z,8.118286133
2024-04-10T05:04:28.612Z,8.128356934
2024-04-10T05:05:31.577Z,8.168640137
2024-04-10T05:07:04.965Z,8.138427734
2024-04-10T05:08:07.252Z,8.168640137
2024-04-10T05:09:09.809Z,8.128356934
2024-04-10T05:10:11.960Z,8.118286133
2024-04-10T05:11:13.573Z,8.098144531
2024-04-10T05:12:15.625Z,8.067932129
2024-04-10T05:13:18.663Z,7.987365723
2024-04-10T05:14:21.165Z,7.886657715
2024-04-10T05:15:23.522Z,7.836303711
2024-04-10T05:16:26.307Z,7.836303711
2024-04-10T05:17:29.211Z,7.856445313
2024-04-10T05:18:31.563Z,7.886657715
2024-04-10T05:20:05.365Z,7.906799316
2024-04-10T05:21:07.795Z,7.916870117
2024-04-10T05:22:10.392Z,7.846374512
2024-04-10T05:23:12.849Z,7.785949707
2024-04-10T05:24:14.514Z,7.735595703
2024-04-10T05:25:16.831Z,7.755737305
2024-04-10T05:26:19.128Z,7.785949707
2024-04-10T05:27:22.238Z,7.816162109
2024-04-10T05:28:24.709Z,7.886657715
2024-04-10T05:29:26.741Z,7.906799316
2024-04-10T05:30:29.155Z,7.987365723
2024-04-10T05:31:31.403Z,8.067932129
2024-04-10T05:33:04.851Z,8.138427734
2024-04-10T05:34:07.272Z,8.168640137
2024-04-10T05:35:09.261Z,8.178710938
2024-04-10T05:36:11.333Z,8.198852539
2024-04-10T05:37:14.248Z,8.218994141
2024-04-10T05:38:16.344Z,8.239135742
2024-04-10T05:39:18.879Z,8.20892334
2024-04-10T05:40:21.243Z,8.20892334
2024-04-10T05:41:24.248Z,8.138427734
2024-04-10T05:42:25.859Z,8.057861328
2024-04-10T05:43:28.062Z,7.987365723
2024-04-10T05:44:30.329Z,7.916870117
2024-04-10T05:45:32.883Z,7.886657715
2024-04-10T05:47:06.326Z,7.886657715
2024-04-10T05:48:09.368Z,7.906799316
2024-04-10T05:49:11.516Z,7.94708252
2024-04-10T05:50:13.798Z,7.937011719
2024-04-10T05:51:16.293Z,7.997436523
2024-04-10T05:52:18.250Z,8.017578125
2024-04-10T05:53:20.702Z,8.017578125
2024-04-10T05:54:23.690Z,8.017578125
2024-04-10T05:55:25.107Z,8.017578125
2024-04-10T05:56:27.936Z,8.027648926
2024-04-10T05:57:29.702Z,8.037719727
2024-04-10T05:58:31.733Z,8.057861328
2024-04-10T06:00:05.176Z,8.017578125
2024-04-10T06:01:07.357Z,8.027648926
2024-04-10T06:02:09.817Z,8.037719727
2024-04-10T06:03:12.339Z,8.027648926
2024-04-10T06:04:14.698Z,8.017578125
2024-04-10T06:05:16.802Z,8.017578125
2024-04-10T06:06:18.898Z,7.997436523
2024-04-10T06:07:21.430Z,7.95715332
2024-04-10T06:08:23.855Z,7.95715332
2024-04-10T06:09:26.083Z,8.027648926
2024-04-10T06:10:28.391Z,8.037719727
2024-04-10T06:11:30.753Z,8.057861328
2024-04-10T06:13:05.338Z,8.08807373
2024-04-10T06:14:07.798Z,7.997436523
2024-04-10T06:15:10.225Z,7.997436523
2024-04-10T06:16:12.076Z,7.94708252
2024-04-10T06:17:14.274Z,7.95715332
2024-04-10T06:18:16.818Z,7.94708252
2024-04-10T06:19:19.327Z,7.937011719
2024-04-10T06:20:20.934Z,7.916870117
2024-04-10T06:21:22.949Z,7.916870117
2024-04-10T06:22:24.985Z,7.937011719
2024-04-10T06:23:27.060Z,8.017578125
2024-04-10T06:24:29.837Z,7.95715332
2024-04-10T06:26:04.161Z,7.94708252
2024-04-10T06:27:06.318Z,7.886657715
2024-04-10T06:28:08.810Z,7.836303711
2024-04-10T06:29:11.289Z,7.806091309
2024-04-10T06:30:13.781Z,7.785949707
2024-04-10T06:31:15.695Z,7.765808105
2024-04-10T06:32:18.580Z,7.785949707
2024-04-10T06:33:20.853Z,7.785949707
2024-04-10T06:34:23.370Z,7.816162109
2024-04-10T06:35:25.803Z,7.856445313
2024-04-10T06:36:28.235Z,7.906799316
2024-04-10T06:37:30.343Z,7.95715332
2024-04-10T06:39:03.822Z,7.997436523
2024-04-10T06:40:06.283Z,8.057861328
2024-04-10T06:41:09.581Z,8.168640137
2024-04-10T06:42:11.721Z,8.249206543
2024-04-10T06:43:13.928Z,8.390197754
2024-04-10T06:44:16.452Z,8.460693359
2024-04-10T06:45:18.746Z,8.47076416
2024-04-10T06:46:21.201Z,8.611755371
2024-04-10T06:47:23.397Z,8.712463379
2024-04-10T06:48:27.107Z,8.823242188
2024-04-10T06:49:29.452Z,9.034729004
2024-04-10T06:51:04.307Z,9.064941406
2024-04-10T06:52:05.840Z,9.11529541
2024-04-10T06:53:08.156Z,9.155578613
2024-04-10T06:54:10.577Z,9.195861816
2024-04-10T06:55:13.778Z,9.226074219
2024-04-10T06:56:16.281Z,9.23614502
2024-04-10T06:57:19.146Z,9.296569824
2024-04-10T06:58:21.148Z,9.346923828
2024-04-10T06:59:23.420Z,9.417419434
2024-04-10T07:00:25.771Z,9.49798584
2024-04-10T07:01:28.226Z,9.588623047
2024-04-10T07:02:31.399Z,9.669189453
2024-04-10T07:04:05.280Z,9.739685059
2024-04-10T07:05:07.471Z,9.699401855
2024-04-10T07:06:09.683Z,9.679260254
2024-04-10T07:07:11.726Z,9.699401855
2024-04-10T07:08:14.784Z,9.739685059
2024-04-10T07:09:17.263Z,9.769897461
2024-04-10T07:10:19.232Z,9.779968262
2024-04-10T07:11:21.598Z,9.779968262
2024-04-10T07:12:23.422Z,9.749755859
2024-04-10T07:13:25.674Z,9.769897461
2024-04-10T07:14:27.774Z,9.749755859
2024-04-10T07:15:29.980Z,9.729614258
2024-04-10T07:17:05.277Z,9.699401855
2024-04-10T07:18:07.328Z,9.699401855
2024-04-10T07:19:09.668Z,9.669189453
2024-04-10T07:20:11.812Z,9.649047852
2024-04-10T07:21:14.171Z,9.618835449
2024-04-10T07:22:16.243Z,9.588623047
2024-04-10T07:23:18.784Z,9.558410645
2024-04-10T07:24:20.774Z,9.528198242
2024-04-10T07:25:22.416Z,9.548339844
2024-04-10T07:26:24.881Z,9.578552246
2024-04-10T07:27:27.232Z,9.598693848
2024-04-10T07:28:31.100Z,9.769897461
2024-04-10T07:30:05.314Z,9.779968262
2024-04-10T07:31:07.873Z,9.800109863
2024-04-10T07:32:10.327Z,9.810180664
2024-04-10T07:33:13.123Z,9.860534668
2024-04-10T07:34:16.141Z,9.88067627
2024-04-10T07:35:18.274Z,9.800109863
2024-04-10T07:36:20.257Z,9.779968262
2024-04-10T07:37:22.788Z,9.729614258
2024-04-10T07:38:25.335Z,9.679260254
2024-04-10T07:39:27.772Z,9.598693848
2024-04-10T07:40:30.048Z,9.548339844
2024-04-10T07:42:03.923Z,9.528198242
2024-04-10T07:43:06.192Z,9.518127441
2024-04-10T07:44:08.638Z,9.518127441
2024-04-10T07:45:10.708Z,9.487915039
2024-04-10T07:46:12.867Z,9.518127441
2024-04-10T07:47:15.432Z,9.528198242
2024-04-10T07:48:17.875Z,9.578552246
2024-04-10T07:49:19.890Z,9.62890625
2024-04-10T07:50:21.891Z,9.729614258
2024-04-10T07:51:23.776Z,9.769897461
2024-04-10T07:52:27.779Z,9.800109863
2024-04-10T07:53:31.850Z,9.830322266
2024-04-10T07:55:04.589Z,9.850463867
2024-04-10T07:56:07.259Z,9.860534668
2024-04-10T07:57:09.579Z,9.850463867
2024-04-10T07:58:16.234Z,9.830322266
2024-04-10T07:59:18.291Z,9.850463867
2024-04-10T08:00:20.677Z,9.830322266
2024-04-10T08:01:23.088Z,9.850463867
2024-04-10T08:02:25.903Z,9.860534668
2024-04-10T08:03:28.210Z,9.88067627
2024-04-10T08:04:30.507Z,9.830322266
2024-04-10T08:06:03.753Z,9.88067627
2024-04-10T08:07:06.068Z,9.88067627
2024-04-10T08:08:08.264Z,9.88067627
2024-04-10T08:09:10.267Z,9.89074707
2024-04-10T08:10:12.612Z,9.89074707
2024-04-10T08:11:14.924Z,9.89074707
2024-04-10T08:12:16.882Z,9.88067627
2024-04-10T08:13:18.788Z,9.88067627
2024-04-10T08:14:21.795Z,9.860534668
2024-04-10T08:15:23.732Z,9.88067627
2024-04-10T08:16:26.556Z,9.850463867
2024-04-10T08:17:29.249Z,9.830322266
2024-04-10T08:18:31.708Z,9.810180664
2024-04-10T08:20:05.736Z,9.830322266
2024-04-10T08:21:07.638Z,9.860534668
2024-04-10T08:22:09.626Z,9.88067627
2024-04-10T08:23:11.736Z,9.860534668
2024-04-10T08:24:14.683Z,9.810180664
2024-04-10T08:25:16.768Z,9.830322266
2024-04-10T08:26:19.432Z,9.800109863
2024-04-10T08:27:21.701Z,9.769897461
2024-04-10T08:28:23.746Z,9.729614258
2024-04-10T08:29:26.072Z,9.769897461
2024-04-10T08:30:28.575Z,9.860534668
2024-04-10T08:32:07.650Z,9.991455078
2024-04-10T08:34:06.979Z,10.04180908
2024-04-10T08:35:09.373Z,10.13244629
2024-04-10T08:36:11.450Z,10.2230835
2024-04-10T08:37:13.725Z,10.3237915
2024-04-10T08:38:16.241Z,10.43457031
2024-04-10T08:39:19.687Z,10.54534912
2024-04-10T08:40:22.731Z,10.65612793
2024-04-10T08:41:24.808Z,10.71655273
2024-04-10T08:42:26.912Z,10.79711914
2024-04-10T08:43:28.903Z,10.83740234
2024-04-10T08:45:02.184Z,10.86761475
2024-04-10T08:46:05.143Z,10.86761475
2024-04-10T08:47:07.333Z,10.89782715
2024-04-10T08:48:09.322Z,10.90789795
2024-04-10T08:49:11.298Z,10.82733154
2024-04-10T08:50:13.793Z,10.75683594
2024-04-10T08:51:15.909Z,10.80718994
2024-04-10T08:52:18.242Z,10.77697754
2024-04-10T08:53:20.682Z,10.82733154
2024-04-10T08:54:23.847Z,10.79711914
2024-04-10T08:55:25.991Z,10.69641113
2024-04-10T08:56:28.246Z,10.68634033
2024-04-10T08:57:31.034Z,10.62591553
2024-04-10T08:59:04.786Z,10.65612793
2024-04-10T09:00:07.290Z,10.64605713
2024-04-10T09:01:10.099Z,10.64605713
2024-04-10T09:02:12.382Z,10.62591553
2024-04-10T09:03:15.279Z,10.62591553
2024-04-10T09:04:17.974Z,10.67626953
2024-04-10T09:05:20.114Z,10.62591553
2024-04-10T09:06:22.258Z,10.62591553
2024-04-10T09:07:24.181Z,10.64605713
2024-04-10T09:08:26.495Z,10.65612793
2024-04-10T09:09:29.089Z,10.64605713
2024-04-10T09:11:02.843Z,10.57556152
2024-04-10T09:12:05.229Z,10.53527832
2024-04-10T09:13:07.834Z,10.50506592
2024-04-10T09:14:09.701Z,10.49499512
2024-04-10T09:15:12.807Z,10.46478271
2024-04-10T09:16:14.898Z,10.49499512
2024-04-10T09:17:16.915Z,10.53527832
2024-04-10T09:18:18.787Z,10.57556152
2024-04-10T09:19:21.295Z,10.57556152
2024-04-10T09:20:24.190Z,10.61584473
2024-04-10T09:21:26.557Z,10.62591553
2024-04-10T09:22:28.896Z,10.68634033
2024-04-10T09:24:02.711Z,10.69641113
2024-04-10T09:25:04.352Z,10.65612793
2024-04-10T09:26:06.414Z,10.69641113
2024-04-10T09:27:08.422Z,10.71655273
2024-04-10T09:28:10.351Z,10.69641113
2024-04-10T09:29:13.307Z,10.69641113
2024-04-10T09:30:15.615Z,10.71655273
2024-04-10T09:31:17.670Z,10.74676514
2024-04-10T09:32:19.861Z,10.75683594
2024-04-10T09:33:21.829Z,10.77697754
2024-04-10T09:34:24.195Z,10.79711914
2024-04-10T09:35:25.782Z,10.82733154
2024-04-10T09:36:27.872Z,10.80718994
2024-04-10T09:37:29.843Z,10.83740234
2024-04-10T09:39:03.010Z,10.80718994
2024-04-10T09:40:05.013Z,10.79711914
2024-04-10T09:41:07.664Z,10.77697754
2024-04-10T09:42:10.196Z,10.75683594
2024-04-10T09:43:12.165Z,10.75683594
2024-04-10T09:44:15.283Z,10.79711914
2024-04-10T09:45:17.152Z,10.72662354
2024-04-10T09:46:19.156Z,10.72662354
2024-04-10T09:47:21.238Z,10.69641113
2024-04-10T09:48:23.428Z,10.72662354
2024-04-10T09:49:25.388Z,10.80718994
2024-04-10T09:50:27.409Z,10.87768555
2024-04-10T09:51:30.368Z,11.00860596
2024-04-10T09:53:03.685Z,11.05895996
2024-04-10T09:54:05.718Z,11.15966797
2024-04-10T09:55:07.296Z,11.27044678
2024-04-10T09:56:09.592Z,11.36108398
2024-04-10T09:57:11.979Z,11.41143799
2024-04-10T09:58:14.652Z,11.42150879
2024-04-10T09:59:16.770Z,11.44165039
2024-04-10T10:00:18.841Z,11.42150879
2024-04-10T10:01:21.889Z,11.44165039
2024-04-10T10:02:22.800Z,11.45172119
2024-04-10T10:03:24.345Z,11.48193359
2024-04-10T10:04:25.644Z,11.512146
2024-04-10T10:05:30.918Z,11.49200439
2024-04-10T10:06:29.604Z,11.5423584
2024-04-10T10:08:04.294Z,11.5927124
2024-04-10T10:09:07.633Z,11.63299561
2024-04-10T10:10:10.293Z,11.66320801
2024-04-10T10:11:13.199Z,11.6027832
2024-04-10T10:12:14.757Z,11.6027832
2024-04-10T10:13:16.875Z,11.6229248
2024-04-10T10:14:19.346Z,11.6229248
2024-04-10T10:15:21.603Z,11.67327881
2024-04-10T10:16:23.792Z,11.72363281
2024-04-10T10:17:25.221Z,11.75384521
2024-04-10T10:18:33.530Z,11.82434082
2024-04-10T10:19:30.697Z,11.97540283
2024-04-10T10:21:04.780Z,12.02575684
2024-04-10T10:22:09.342Z,12.03582764
2024-04-10T10:23:12.295Z,12.03582764
2024-04-10T10:24:11.427Z,11.99554443
2024-04-10T10:25:12.576Z,11.99554443
2024-04-10T10:26:15.161Z,11.97540283
2024-04-10T10:27:17.432Z,11.96533203
2024-04-10T10:28:20.168Z,11.97540283
2024-04-10T10:29:21.684Z,12.02575684
2024-04-10T10:30:23.730Z,12.04589844
2024-04-10T10:31:25.931Z,12.07611084
2024-04-10T10:32:27.996Z,12.15667725
2024-04-10T10:33:30.564Z,12.22717285
2024-04-10T10:35:03.772Z,12.24731445
2024-04-10T10:36:08.311Z,12.29766846
2024-04-10T10:37:10.375Z,12.33795166
2024-04-10T10:38:12.278Z,12.35809326
2024-04-10T10:39:14.183Z,12.39837646
2024-04-10T10:40:16.230Z,12.39837646
2024-04-10T10:41:19.432Z,12.42858887
2024-04-10T10:42:20.848Z,12.42858887
2024-04-10T10:43:22.434Z,12.40844727
2024-04-10T10:44:24.458Z,12.37823486
2024-04-10T10:45:28.147Z,12.39837646
2024-04-10T10:47:02.823Z,12.30773926
2024-04-10T10:48:05.741Z,12.11639404
2024-04-10T10:49:07.313Z,12.06604004
2024-04-10T10:50:08.795Z,12.10632324
2024-04-10T10:51:11.498Z,12.17681885
2024-04-10T10:52:13.632Z,12.28759766
2024-04-10T10:53:16.929Z,12.32788086
2024-04-10T10:54:19.319Z,12.35809326
2024-04-10T10:55:22.168Z,12.37823486
2024-04-10T10:56:24.350Z,12.42858887
2024-04-10T10:57:27.207Z,12.40844727
2024-04-10T10:58:29.188Z,12.37823486
2024-04-10T11:00:01.312Z,12.39837646
2024-04-10T11:01:03.721Z,12.37823486
2024-04-10T11:02:06.342Z,12.39837646
2024-04-10T11:03:16.542Z,12.37823486
2024-04-10T11:04:13.052Z,12.45880127
2024-04-10T11:05:14.528Z,12.45880127
2024-04-10T11:06:16.785Z,12.53936768
2024-04-10T11:07:18.575Z,12.60986328
2024-04-10T11:08:20.686Z,12.63000488
2024-04-10T11:09:22.727Z,12.67028809
2024-04-10T11:10:25.829Z,12.76092529
2024-04-10T11:11:28.612Z,12.96234131
2024-04-10T11:13:01.309Z,12.99255371
2024-04-10T11:14:03.346Z,12.99255371
2024-04-10T11:15:05.745Z,12.99255371
2024-04-10T11:16:09.191Z,12.99255371
2024-04-10T11:17:11.906Z,12.92205811
2024-04-10T11:18:13.877Z,12.8918457
2024-04-10T11:19:15.645Z,12.9119873
2024-04-10T11:20:17.823Z,12.8918457
2024-04-10T11:21:20.652Z,12.9119873
2024-04-10T11:22:24.340Z,12.95227051
2024-04-10T11:23:26.488Z,12.96234131
2024-04-10T11:24:28.412Z,12.92205811
2024-04-10T11:26:01.939Z,12.8717041
2024-04-10T11:27:04.214Z,12.8414917
2024-04-10T11:28:06.368Z,12.8112793
2024-04-10T11:29:10.297Z,12.8414917
2024-04-10T11:30:10.709Z,12.8717041
2024-04-10T11:31:12.774Z,12.8515625
2024-04-10T11:32:14.798Z,12.9119873
2024-04-10T11:33:17.018Z,12.92205811
2024-04-10T11:34:19.389Z,12.9119873
2024-04-10T11:35:21.300Z,12.8112793
2024-04-10T11:36:23.711Z,12.71057129
2024-04-10T11:37:25.956Z,12.60986328
2024-04-10T11:38:29.045Z,12.29766846
2024-04-10T11:40:04.715Z,12.20703125
2024-04-10T11:41:07.417Z,12.15667725
2024-04-10T11:42:09.685Z,12.06604004
2024-04-10T11:43:12.389Z,12.03582764
2024-04-10T11:44:15.363Z,11.93511963